sensor_id;sensor_type;location;lat;lon;timestamp;P1;durP1;ratioP1;P2;durP2;ratioP2
47113;SDS011;32867;51.556;6.832;2023-04-01T00:02:20;5.07;;;1.55;;
47113;SDS011;32867;51.556;6.832;2023-04-01T00:07:21;5.47;;;1.80;;
47113;SDS011;32867;51.556;6.832;2023-04-01T00:12:22;5.22;;;1.58;;
47113;SDS011;32867;51.556;6.832;2023-04-01T00:17:25;5.95;;;2.10;;
47113;SDS011;32867;51.556;6.832;2023-04-01T00:22:26;6.03;;;1.90;;
47113;SDS011;32867;51.556;6.832;2023-04-01T00:27:27;5.68;;;1.60;;
47113;SDS011;32867;51.556;6.832;2023-04-01T00:32:27;6.40;;;1.77;;
47113;SDS011;32867;51.556;6.832;2023-04-01T00:37:28;5.18;;;1.80;;
47113;SDS011;32867;51.556;6.832;2023-04-01T00:42:30;5.25;;;1.70;;
47113;SDS011;32867;51.556;6.832;2023-04-01T00:47:31;6.72;;;1.42;;
47113;SDS011;32867;51.556;6.832;2023-04-01T00:52:32;4.15;;;1.52;;
47113;SDS011;32867;51.556;6.832;2023-04-01T00:57:34;2.70;;;1.30;;
47113;SDS011;32867;51.556;6.832;2023-04-01T01:02:36;2.75;;;1.02;;
47113;SDS011;32867;51.556;6.832;2023-04-01T01:07:40;2.78;;;1.23;;
47113;SDS011;32867;51.556;6.832;2023-04-01T01:12:59;4.07;;;1.35;;
47113;SDS011;32867;51.556;6.832;2023-04-01T01:18:19;4.50;;;1.80;;
47113;SDS011;32867;51.556;6.832;2023-04-01T01:39:49;3.63;;;1.45;;
47113;SDS011;32867;51.556;6.832;2023-04-01T01:44:54;3.50;;;1.53;;
47113;SDS011;32867;51.556;6.832;2023-04-01T01:49:59;4.40;;;1.75;;
47113;SDS011;32867;51.556;6.832;2023-04-01T01:55:01;5.13;;;1.60;;
47113;SDS011;32867;51.556;6.832;2023-04-01T02:00:12;7.00;;;1.98;;
47113;SDS011;32867;51.556;6.832;2023-04-01T02:05:16;6.68;;;1.77;;
47113;SDS011;32867;51.556;6.832;2023-04-01T02:10:20;3.85;;;1.65;;
47113;SDS011;32867;51.556;6.832;2023-04-01T02:15:25;3.13;;;1.70;;
47113;SDS011;32867;51.556;6.832;2023-04-01T02:20:27;3.45;;;1.83;;
47113;SDS011;32867;51.556;6.832;2023-04-01T02:25:30;4.75;;;1.85;;
47113;SDS011;32867;51.556;6.832;2023-04-01T02:30:35;3.85;;;1.60;;
47113;SDS011;32867;51.556;6.832;2023-04-01T02:35:38;4.28;;;1.70;;
47113;SDS011;32867;51.556;6.832;2023-04-01T02:40:42;5.60;;;1.92;;
47113;SDS011;32867;51.556;6.832;2023-04-01T02:45:44;3.05;;;1.75;;
47113;SDS011;32867;51.556;6.832;2023-04-01T02:50:45;5.45;;;2.10;;
47113;SDS011;32867;51.556;6.832;2023-04-01T02:55:46;6.25;;;1.83;;
47113;SDS011;32867;51.556;6.832;2023-04-01T03:00:50;4.43;;;1.50;;
47113;SDS011;32867;51.556;6.832;2023-04-01T03:05:51;4.30;;;1.80;;
47113;SDS011;32867;51.556;6.832;2023-04-01T03:10:53;4.30;;;2.50;;
47113;SDS011;32867;51.556;6.832;2023-04-01T03:15:53;7.15;;;3.50;;
47113;SDS011;32867;51.556;6.832;2023-04-01T03:20:54;6.68;;;3.72;;
47113;SDS011;32867;51.556;6.832;2023-04-01T03:25:55;8.77;;;3.63;;
47113;SDS011;32867;51.556;6.832;2023-04-01T03:30:55;6.10;;;3.72;;
47113;SDS011;32867;51.556;6.832;2023-04-01T03:35:56;6.35;;;4.07;;
47113;SDS011;32867;51.556;6.832;2023-04-01T03:40:57;5.18;;;3.85;;
47113;SDS011;32867;51.556;6.832;2023-04-01T03:45:57;9.07;;;5.80;;
47113;SDS011;32867;51.556;6.832;2023-04-01T03:50:58;6.53;;;4.22;;
47113;SDS011;32867;51.556;6.832;2023-04-01T03:56:03;8.68;;;5.07;;
47113;SDS011;32867;51.556;6.832;2023-04-01T04:01:19;6.45;;;4.07;;
47113;SDS011;32867;51.556;6.832;2023-04-01T04:06:23;5.18;;;2.90;;
47113;SDS011;32867;51.556;6.832;2023-04-01T04:11:25;6.97;;;4.43;;
47113;SDS011;32867;51.556;6.832;2023-04-01T04:16:27;7.50;;;4.70;;
47113;SDS011;32867;51.556;6.832;2023-04-01T04:21:33;4.83;;;3.10;;
47113;SDS011;32867;51.556;6.832;2023-04-01T04:26:34;5.75;;;3.80;;
47113;SDS011;32867;51.556;6.832;2023-04-01T04:31:35;7.07;;;4.10;;
47113;SDS011;32867;51.556;6.832;2023-04-01T04:36:36;6.85;;;4.55;;
47113;SDS011;32867;51.556;6.832;2023-04-01T04:41:36;5.88;;;4.22;;
47113;SDS011;32867;51.556;6.832;2023-04-01T04:46:38;8.73;;;5.63;;
47113;SDS011;32867;51.556;6.832;2023-04-01T04:51:49;6.30;;;4.30;;
47113;SDS011;32867;51.556;6.832;2023-04-01T04:56:52;7.00;;;4.72;;
47113;SDS011;32867;51.556;6.832;2023-04-01T05:01:54;7.57;;;4.85;;
47113;SDS011;32867;51.556;6.832;2023-04-01T05:06:55;7.20;;;4.70;;
47113;SDS011;32867;51.556;6.832;2023-04-01T05:11:57;8.70;;;6.18;;
47113;SDS011;32867;51.556;6.832;2023-04-01T05:16:59;8.90;;;6.03;;
47113;SDS011;32867;51.556;6.832;2023-04-01T05:22:01;7.80;;;5.07;;
47113;SDS011;32867;51.556;6.832;2023-04-01T05:27:03;9.40;;;6.35;;
47113;SDS011;32867;51.556;6.832;2023-04-01T05:32:04;8.75;;;6.30;;
47113;SDS011;32867;51.556;6.832;2023-04-01T05:37:04;10.48;;;6.63;;
47113;SDS011;32867;51.556;6.832;2023-04-01T05:42:07;9.55;;;6.32;;
47113;SDS011;32867;51.556;6.832;2023-04-01T05:47:08;11.00;;;5.93;;
47113;SDS011;32867;51.556;6.832;2023-04-01T05:52:09;11.63;;;6.80;;
47113;SDS011;32867;51.556;6.832;2023-04-01T05:57:10;14.35;;;8.90;;
47113;SDS011;32867;51.556;6.832;2023-04-01T06:02:11;11.38;;;8.57;;
47113;SDS011;32867;51.556;6.832;2023-04-01T06:07:16;11.75;;;8.02;;
47113;SDS011;32867;51.556;6.832;2023-04-01T06:17:43;8.13;;;6.10;;
47113;SDS011;32867;51.556;6.832;2023-04-01T06:23:07;9.55;;;6.10;;
47113;SDS011;32867;51.556;6.832;2023-04-01T06:55:41;4.82;;;3.80;;
47113;SDS011;32867;51.556;6.832;2023-04-01T07:01:03;5.25;;;4.38;;
47113;SDS011;32867;51.556;6.832;2023-04-01T07:06:13;4.57;;;4.07;;
47113;SDS011;32867;51.556;6.832;2023-04-01T07:11:31;5.25;;;4.30;;
47113;SDS011;32867;51.556;6.832;2023-04-01T07:22:05;5.05;;;4.07;;
47113;SDS011;32867;51.556;6.832;2023-04-01T07:27:37;5.68;;;4.03;;
47113;SDS011;32867;51.556;6.832;2023-04-01T07:32:42;4.75;;;3.38;;
47113;SDS011;32867;51.556;6.832;2023-04-01T07:59:11;4.47;;;3.83;;
47113;SDS011;32867;51.556;6.832;2023-04-01T08:04:54;5.47;;;4.20;;
47113;SDS011;32867;51.556;6.832;2023-04-01T08:21:10;7.22;;;5.15;;
47113;SDS011;32867;51.556;6.832;2023-04-01T08:32:00;6.97;;;5.10;;
47113;SDS011;32867;51.556;6.832;2023-04-01T08:37:09;6.13;;;4.68;;
47113;SDS011;32867;51.556;6.832;2023-04-01T08:47:55;8.18;;;5.93;;
47113;SDS011;32867;51.556;6.832;2023-04-01T08:59:03;6.90;;;5.35;;
47113;SDS011;32867;51.556;6.832;2023-04-01T09:47:45;9.73;;;6.57;;
47113;SDS011;32867;51.556;6.832;2023-04-01T09:52:55;8.55;;;7.03;;
47113;SDS011;32867;51.556;6.832;2023-04-01T10:03:36;7.72;;;5.72;;
47113;SDS011;32867;51.556;6.832;2023-04-01T10:09:17;6.43;;;5.10;;
47113;SDS011;32867;51.556;6.832;2023-04-01T10:26:11;5.88;;;4.78;;
47113;SDS011;32867;51.556;6.832;2023-04-01T10:42:17;5.68;;;4.68;;
47113;SDS011;32867;51.556;6.832;2023-04-01T10:48:12;6.53;;;4.63;;
47113;SDS011;32867;51.556;6.832;2023-04-01T11:32:24;8.23;;;6.22;;
47113;SDS011;32867;51.556;6.832;2023-04-01T11:43:16;7.63;;;5.25;;
47113;SDS011;32867;51.556;6.832;2023-04-01T12:05:03;10.18;;;6.72;;
47113;SDS011;32867;51.556;6.832;2023-04-01T12:10:45;6.95;;;5.72;;
47113;SDS011;32867;51.556;6.832;2023-04-01T12:21:24;6.05;;;4.60;;
47113;SDS011;32867;51.556;6.832;2023-04-01T12:32:01;6.78;;;5.70;;
47113;SDS011;32867;51.556;6.832;2023-04-01T12:53:54;8.50;;;4.75;;
47113;SDS011;32867;51.556;6.832;2023-04-01T13:04:28;6.47;;;4.20;;
47113;SDS011;32867;51.556;6.832;2023-04-01T13:15:11;5.53;;;4.30;;
47113;SDS011;32867;51.556;6.832;2023-04-01T13:26:18;6.40;;;4.80;;
47113;SDS011;32867;51.556;6.832;2023-04-01T13:31:25;7.63;;;5.13;;
47113;SDS011;32867;51.556;6.832;2023-04-01T13:37:05;5.28;;;4.20;;
47113;SDS011;32867;51.556;6.832;2023-04-01T13:42:26;5.90;;;4.38;;
47113;SDS011;32867;51.556;6.832;2023-04-01T13:58:04;6.55;;;5.72;;
47113;SDS011;32867;51.556;6.832;2023-04-01T14:03:28;7.00;;;6.07;;
47113;SDS011;32867;51.556;6.832;2023-04-01T14:14:31;6.80;;;5.65;;
47113;SDS011;32867;51.556;6.832;2023-04-01T14:41:13;8.30;;;7.40;;
47113;SDS011;32867;51.556;6.832;2023-04-01T14:51:39;8.82;;;7.93;;
47113;SDS011;32867;51.556;6.832;2023-04-01T15:02:01;8.80;;;7.57;;
47113;SDS011;32867;51.556;6.832;2023-04-01T15:12:32;8.98;;;6.63;;
47113;SDS011;32867;51.556;6.832;2023-04-01T15:28:09;7.55;;;6.15;;
47113;SDS011;32867;51.556;6.832;2023-04-01T15:33:37;5.72;;;5.03;;
47113;SDS011;32867;51.556;6.832;2023-04-01T15:38:52;6.03;;;4.93;;
47113;SDS011;32867;51.556;6.832;2023-04-01T16:26:42;5.55;;;4.63;;
47113;SDS011;32867;51.556;6.832;2023-04-01T16:37:38;5.82;;;4.95;;
47113;SDS011;32867;51.556;6.832;2023-04-01T16:42:50;10.68;;;7.50;;
47113;SDS011;32867;51.556;6.832;2023-04-01T16:48:06;9.77;;;7.10;;
47113;SDS011;32867;51.556;6.832;2023-04-01T17:03:58;11.38;;;7.95;;
47113;SDS011;32867;51.556;6.832;2023-04-01T17:09:13;9.27;;;7.07;;
47113;SDS011;32867;51.556;6.832;2023-04-01T17:14:29;12.90;;;9.15;;
47113;SDS011;32867;51.556;6.832;2023-04-01T17:35:39;6.63;;;5.28;;
47113;SDS011;32867;51.556;6.832;2023-04-01T17:40:53;6.68;;;5.22;;
47113;SDS011;32867;51.556;6.832;2023-04-01T17:46:25;6.60;;;5.35;;
47113;SDS011;32867;51.556;6.832;2023-04-01T17:51:43;6.72;;;5.07;;
47113;SDS011;32867;51.556;6.832;2023-04-01T18:23:19;2.75;;;2.13;;
47113;SDS011;32867;51.556;6.832;2023-04-01T18:28:44;3.40;;;2.63;;
47113;SDS011;32867;51.556;6.832;2023-04-01T18:44:30;5.05;;;3.95;;
47113;SDS011;32867;51.556;6.832;2023-04-01T18:55:42;1.92;;;1.60;;
47113;SDS011;32867;51.556;6.832;2023-04-01T19:00:53;2.10;;;1.70;;
47113;SDS011;32867;51.556;6.832;2023-04-01T19:06:15;2.22;;;1.60;;
47113;SDS011;32867;51.556;6.832;2023-04-01T19:11:33;3.17;;;1.90;;
47113;SDS011;32867;51.556;6.832;2023-04-01T19:27:37;2.05;;;1.40;;
47113;SDS011;32867;51.556;6.832;2023-04-01T19:38:36;1.50;;;1.30;;
47113;SDS011;32867;51.556;6.832;2023-04-01T19:43:59;2.63;;;1.60;;
47113;SDS011;32867;51.556;6.832;2023-04-01T19:54:51;1.80;;;1.27;;
47113;SDS011;32867;51.556;6.832;2023-04-01T19:59:57;1.98;;;1.70;;
47113;SDS011;32867;51.556;6.832;2023-04-01T20:05:21;2.85;;;1.83;;
47113;SDS011;32867;51.556;6.832;2023-04-01T20:16:03;3.30;;;1.85;;
47113;SDS011;32867;51.556;6.832;2023-04-01T20:21:16;3.05;;;2.00;;
47113;SDS011;32867;51.556;6.832;2023-04-01T20:26:26;3.33;;;1.80;;
47113;SDS011;32867;51.556;6.832;2023-04-01T20:31:35;2.58;;;1.60;;
47113;SDS011;32867;51.556;6.832;2023-04-01T20:42:21;1.75;;;1.35;;
47113;SDS011;32867;51.556;6.832;2023-04-01T20:52:40;1.92;;;1.60;;
47113;SDS011;32867;51.556;6.832;2023-04-01T21:03:23;2.20;;;1.67;;
47113;SDS011;32867;51.556;6.832;2023-04-01T21:14:28;3.05;;;2.03;;
47113;SDS011;32867;51.556;6.832;2023-04-01T21:20:01;3.08;;;2.15;;
47113;SDS011;32867;51.556;6.832;2023-04-01T21:30:57;4.85;;;2.50;;
47113;SDS011;32867;51.556;6.832;2023-04-01T21:36:23;4.40;;;2.47;;
47113;SDS011;32867;51.556;6.832;2023-04-01T22:13:22;3.40;;;2.13;;
47113;SDS011;32867;51.556;6.832;2023-04-01T22:18:31;3.90;;;2.55;;
47113;SDS011;32867;51.556;6.832;2023-04-01T22:23:36;3.93;;;2.50;;
47113;SDS011;32867;51.556;6.832;2023-04-01T22:29:17;3.90;;;2.40;;
47113;SDS011;32867;51.556;6.832;2023-04-01T22:34:17;3.60;;;2.50;;
47113;SDS011;32867;51.556;6.832;2023-04-01T22:44:50;2.63;;;1.98;;
47113;SDS011;32867;51.556;6.832;2023-04-01T22:50:16;3.08;;;2.13;;
47113;SDS011;32867;51.556;6.832;2023-04-01T22:55:30;3.08;;;2.17;;
47113;SDS011;32867;51.556;6.832;2023-04-01T23:05:43;2.75;;;2.10;;
47113;SDS011;32867;51.556;6.832;2023-04-01T23:10:49;3.80;;;2.30;;
47113;SDS011;32867;51.556;6.832;2023-04-01T23:16:08;2.45;;;1.90;;
47113;SDS011;32867;51.556;6.832;2023-04-01T23:31:58;2.63;;;2.10;;
47113;SDS011;32867;51.556;6.832;2023-04-01T23:37:02;2.85;;;1.90;;
47113;SDS011;32867;51.556;6.832;2023-04-01T23:42:13;2.60;;;1.65;;
47113;SDS011;32867;51.556;6.832;2023-04-01T23:47:32;2.42;;;1.70;;
47113;SDS011;32867;51.556;6.832;2023-04-01T23:52:35;3.10;;;1.95;;
47113;SDS011;32867;51.556;6.832;2023-04-01T23:57:39;2.40;;;1.90;;
